createdAt,value
2022-09-30T00:01:54.694Z,96793.55
2022-09-30T00:04:25.518Z,96789.92
2022-09-30T00:06:56.792Z,96789.00
2022-09-30T00:09:25.462Z,96790.89
2022-09-30T00:11:54.741Z,96792.35
2022-09-30T00:14:25.753Z,96793.08
2022-09-30T00:16:54.927Z,96789.02
2022-09-30T00:19:24.359Z,96796.51
2022-09-30T00:21:53.887Z,96801.02
2022-09-30T00:24:23.297Z,96804.08
2022-09-30T00:26:51.604Z,96807.92
2022-09-30T00:29:20.044Z,96807.94
2022-09-30T00:31:49.205Z,96802.32
2022-09-30T00:34:18.191Z,96803.02
2022-09-30T00:36:53.084Z,96804.61
2022-09-30T00:39:24.702Z,96805.52
2022-09-30T00:42:08.218Z,96804.98
2022-09-30T00:44:51.317Z,96804.73
2022-09-30T00:47:50.446Z,96805.25
2022-09-30T00:50:43.157Z,96806.81
2022-09-30T00:53:36.749Z,96813.69
2022-09-30T00:56:11.756Z,96814.84
2022-09-30T00:58:48.979Z,96814.99
2022-09-30T01:01:17.591Z,96814.09
2022-09-30T01:03:59.393Z,96817.94
2022-09-30T01:06:28.614Z,96821.84
2022-09-30T01:09:01.036Z,96820.30
2022-09-30T01:11:30.930Z,96820.19
2022-09-30T01:14:06.185Z,96814.89
2022-09-30T01:17:14.825Z,96810.53
2022-09-30T01:19:48.819Z,96813.25
2022-09-30T01:22:55.452Z,96806.89
2022-09-30T01:26:02.008Z,96804.48
2022-09-30T01:28:36.970Z,96807.84
2022-09-30T01:31:13.344Z,96811.23
2022-09-30T01:33:45.499Z,96809.98
2022-09-30T01:36:44.052Z,96805.41
2022-09-30T01:39:34.252Z,96799.75
2022-09-30T01:42:35.581Z,96805.84
2022-09-30T01:45:16.775Z,96818.86
2022-09-30T01:47:47.908Z,96821.66
2022-09-30T01:51:11.104Z,96820.09
2022-09-30T01:54:10.319Z,96817.95
2022-09-30T01:56:44.551Z,96824.87
2022-09-30T01:59:16.161Z,96821.53
2022-09-30T02:02:15.475Z,96820.30
2022-09-30T02:04:50.581Z,96820.27
2022-09-30T02:07:51.394Z,96818.23
2022-09-30T02:10:35.644Z,96810.19
2022-09-30T02:13:13.666Z,96810.52
2022-09-30T02:15:48.061Z,96813.38
2022-09-30T02:18:22.345Z,96817.50
2022-09-30T02:20:57.014Z,96817.80
2022-09-30T02:23:32.749Z,96817.48
2022-09-30T02:26:10.398Z,96816.40
2022-09-30T02:28:45.362Z,96821.05
2022-09-30T02:31:15.753Z,96822.70
2022-09-30T02:34:10.480Z,96819.71
2022-09-30T02:36:45.782Z,96810.61
2022-09-30T02:39:32.233Z,96808.12
2022-09-30T02:42:11.515Z,96809.77
2022-09-30T02:44:40.337Z,96805.88
2022-09-30T02:47:31.008Z,96798.98
2022-09-30T02:50:26.339Z,96797.44
2022-09-30T02:53:27.263Z,96801.84
2022-09-30T02:56:08.556Z,96801.22
2022-09-30T02:58:40.119Z,96804.61
2022-09-30T03:01:12.286Z,96803.14
2022-09-30T03:03:57.598Z,96808.58
2022-09-30T03:06:26.544Z,96808.27
2022-09-30T03:08:54.392Z,96811.91
2022-09-30T03:11:25.719Z,96813.73
2022-09-30T03:14:36.599Z,96809.58
2022-09-30T03:17:46.021Z,96811.13
2022-09-30T03:20:30.826Z,96813.56
2022-09-30T03:23:04.736Z,96816.38
2022-09-30T03:25:45.239Z,96815.90
2022-09-30T03:28:26.652Z,96817.98
2022-09-30T03:31:23.583Z,96813.23
2022-09-30T03:34:13.239Z,96811.95
2022-09-30T03:37:04.262Z,96812.72
2022-09-30T03:39:51.280Z,96814.64
2022-09-30T03:42:28.940Z,96818.27
2022-09-30T03:45:05.942Z,96822.73
2022-09-30T03:47:40.585Z,96828.88
2022-09-30T03:50:11.883Z,96832.58
2022-09-30T03:52:39.661Z,96841.12
2022-09-30T03:55:09.384Z,96844.16
2022-09-30T03:57:38.037Z,96841.79
2022-09-30T04:00:07.522Z,96838.30
2022-09-30T04:02:37.382Z,96837.33
2022-09-30T04:05:05.674Z,96837.06
2022-09-30T04:07:33.912Z,96836.96
2022-09-30T04:10:01.444Z,96844.27
2022-09-30T04:12:28.718Z,96846.66
2022-09-30T04:14:56.337Z,96843.07
2022-09-30T04:17:23.942Z,96840.16
2022-09-30T04:19:51.247Z,96843.89
2022-09-30T04:22:19.928Z,96845.77
2022-09-30T04:24:49.678Z,96841.73
2022-09-30T04:27:17.023Z,96841.15
2022-09-30T04:29:44.588Z,96847.83
2022-09-30T04:32:12.583Z,96853.86
2022-09-30T04:34:40.042Z,96848.14
2022-09-30T04:37:10.717Z,96856.65
2022-09-30T04:39:38.674Z,96852.90
2022-09-30T04:42:06.836Z,96842.98
2022-09-30T04:44:35.169Z,96845.72
2022-09-30T04:47:03.843Z,96852.63
2022-09-30T04:49:31.533Z,96856.17
2022-09-30T04:51:59.138Z,96857.48
2022-09-30T04:54:26.869Z,96860.10
2022-09-30T04:56:54.543Z,96856.50
2022-09-30T04:59:22.534Z,96853.16
2022-09-30T05:01:50.267Z,96852.23
2022-09-30T05:04:17.603Z,96862.89
2022-09-30T05:06:45.161Z,96867.39
2022-09-30T05:09:12.436Z,96871.06
2022-09-30T05:11:41.935Z,96879.25
2022-09-30T05:14:10.326Z,96892.67
2022-09-30T05:16:37.720Z,96896.18
2022-09-30T05:19:05.153Z,96896.49
2022-09-30T05:21:32.694Z,96899.52
2022-09-30T05:24:00.363Z,96894.72
2022-09-30T05:26:28.230Z,96893.52
2022-09-30T05:28:55.559Z,96898.37
2022-09-30T05:31:22.997Z,96904.34
2022-09-30T05:33:58.099Z,96912.38
2022-09-30T05:36:25.917Z,96918.20
2022-09-30T05:38:56.987Z,96924.05
2022-09-30T05:41:24.311Z,96923.16
2022-09-30T05:43:51.574Z,96927.09
2022-09-30T05:46:20.058Z,96932.81
2022-09-30T05:48:47.856Z,96943.08
2022-09-30T05:51:15.750Z,96949.39
2022-09-30T05:53:43.076Z,96948.69
2022-09-30T05:56:10.985Z,96946.77
2022-09-30T05:58:40.163Z,96955.61
2022-09-30T06:01:15.258Z,96964.28
2022-09-30T06:03:45.198Z,96965.70
2022-09-30T06:06:13.807Z,96969.37
2022-09-30T06:08:43.088Z,96964.66
2022-09-30T06:11:12.619Z,96969.23
2022-09-30T06:13:41.740Z,96969.86
2022-09-30T06:16:11.192Z,96959.05
2022-09-30T06:18:40.804Z,96960.44
2022-09-30T06:21:12.982Z,96961.91
2022-09-30T06:23:41.152Z,96964.36
2022-09-30T06:26:11.330Z,96966.90
2022-09-30T06:28:39.199Z,96971.73
2022-09-30T06:31:07.846Z,96975.94
2022-09-30T06:33:35.298Z,96977.96
2022-09-30T06:36:04.282Z,96974.88
2022-09-30T06:38:33.113Z,96970.70
2022-09-30T06:41:03.890Z,96973.69
2022-09-30T06:43:38.119Z,96971.79
2022-09-30T06:46:23.178Z,96962.70
2022-09-30T06:49:12.204Z,96961.66
2022-09-30T06:51:41.547Z,96968.38
2022-09-30T06:54:09.576Z,96971.38
2022-09-30T06:56:36.772Z,96975.66
2022-09-30T06:59:04.227Z,96982.44
2022-09-30T07:01:32.711Z,96984.43
2022-09-30T07:04:07.842Z,96981.23
2022-09-30T07:06:35.694Z,96983.33
2022-09-30T07:09:03.425Z,96982.08
2022-09-30T07:11:30.709Z,96982.05
2022-09-30T07:13:57.992Z,96984.98
2022-09-30T07:16:25.351Z,96980.84
2022-09-30T07:18:53.508Z,96973.74
2022-09-30T07:21:20.785Z,96976.53
2022-09-30T07:23:48.322Z,96974.17
2022-09-30T07:26:20.661Z,96976.23
2022-09-30T07:28:49.643Z,96978.77
2022-09-30T07:31:38.013Z,96983.13
2022-09-30T07:34:07.836Z,96988.00
2022-09-30T07:36:38.429Z,96986.46
2022-09-30T07:39:09.335Z,96989.11
2022-09-30T07:41:39.039Z,96990.77
2022-09-30T07:44:12.984Z,96997.34
2022-09-30T07:46:50.510Z,97004.73
2022-09-30T07:49:25.149Z,97007.93
2022-09-30T07:51:56.379Z,97007.41
2022-09-30T07:54:27.993Z,97011.90
2022-09-30T07:57:09.859Z,97020.23
2022-09-30T07:59:40.159Z,97031.04
2022-09-30T08:02:15.654Z,97039.25
2022-09-30T08:04:44.702Z,97046.52
2022-09-30T08:07:14.726Z,97043.94
2022-09-30T08:09:42.250Z,97044.85
2022-09-30T08:12:10.041Z,97045.77
2022-09-30T08:14:37.597Z,97050.48
2022-09-30T08:17:05.253Z,97052.95
2022-09-30T08:19:33.428Z,97051.30
2022-09-30T08:22:04.509Z,97047.81
2022-09-30T08:24:31.953Z,97058.19
2022-09-30T08:26:59.193Z,97056.96
2022-09-30T08:32:13.858Z,97054.13
2022-09-30T08:34:41.304Z,97058.98
2022-09-30T08:37:10.027Z,97058.09
2022-09-30T08:39:38.534Z,97050.10
2022-09-30T08:42:38.669Z,97047.36
2022-09-30T08:45:13.591Z,97045.27
2022-09-30T08:47:43.704Z,97043.02
2022-09-30T08:50:32.612Z,97048.39
2022-09-30T08:53:07.247Z,97043.61
2022-09-30T08:55:43.419Z,97047.30
2022-09-30T08:58:17.618Z,97052.96
2022-09-30T09:00:45.100Z,97055.09
2022-09-30T09:03:13.918Z,97057.63
2022-09-30T09:05:50.022Z,97048.15
2022-09-30T09:08:31.745Z,97037.46
2022-09-30T09:11:30.085Z,97041.03
2022-09-30T09:14:34.107Z,97046.88
2022-09-30T09:17:27.500Z,97050.45
2022-09-30T09:20:23.655Z,97053.01
2022-09-30T09:22:51.872Z,97053.45
2022-09-30T09:25:27.655Z,97052.65
2022-09-30T09:28:00.741Z,97059.13
2022-09-30T09:30:46.439Z,97062.02
2022-09-30T09:33:25.797Z,97062.58
2022-09-30T09:36:25.449Z,97067.27
2022-09-30T09:39:13.192Z,97069.37
2022-09-30T09:42:07.037Z,97070.92
2022-09-30T09:44:56.840Z,97065.95
2022-09-30T09:47:24.189Z,97074.96
2022-09-30T09:50:00.643Z,97080.40
2022-09-30T09:52:56.712Z,97077.65
2022-09-30T09:55:24.201Z,97078.94
2022-09-30T09:58:10.830Z,97078.84
2022-09-30T10:00:46.977Z,97082.17
2022-09-30T10:03:26.456Z,97083.19
2022-09-30T10:06:06.264Z,97082.19
2022-09-30T10:08:38.405Z,97083.54
2022-09-30T10:11:21.206Z,97086.02
2022-09-30T10:13:50.775Z,97086.46
2022-09-30T10:16:37.546Z,97084.29
2022-09-30T10:19:20.993Z,97088.98
2022-09-30T10:21:49.486Z,97091.14
2022-09-30T10:24:27.413Z,97088.59
2022-09-30T10:26:55.271Z,97081.05
2022-09-30T10:29:35.855Z,97078.65
2022-09-30T10:32:07.770Z,97086.58
2022-09-30T10:34:44.340Z,97083.41
2022-09-30T10:37:15.611Z,97080.20
2022-09-30T10:39:51.894Z,97077.08
2022-09-30T10:42:25.790Z,97079.33
2022-09-30T10:45:04.633Z,97079.98
2022-09-30T10:47:36.964Z,97079.59
2022-09-30T10:50:08.735Z,97071.05
2022-09-30T10:52:44.270Z,97066.16
2022-09-30T10:55:20.454Z,97059.45
2022-09-30T10:57:50.252Z,97060.59
2022-09-30T11:00:21.567Z,97066.82
2022-09-30T11:02:58.310Z,97073.18
2022-09-30T11:05:44.271Z,97081.66
2022-09-30T11:08:30.203Z,97087.19
2022-09-30T11:11:23.018Z,97093.30
2022-09-30T11:14:04.046Z,97091.83
2022-09-30T11:16:49.371Z,97086.85
2022-09-30T11:19:23.658Z,97079.38
2022-09-30T11:21:57.655Z,97080.29
2022-09-30T11:24:39.773Z,97074.23
2022-09-30T11:27:21.803Z,97077.98
2022-09-30T11:30:07.508Z,97076.92
2022-09-30T11:32:53.101Z,97079.70
2022-09-30T11:35:44.260Z,97074.85
2022-09-30T11:38:20.532Z,97070.13
2022-09-30T11:41:06.247Z,97071.80
2022-09-30T11:43:57.594Z,97072.52
2022-09-30T11:46:24.727Z,97075.69
2022-09-30T11:49:10.477Z,97081.17
2022-09-30T11:51:52.387Z,97081.27
2022-09-30T11:54:22.284Z,97084.65
2022-09-30T11:56:49.318Z,97086.08
2022-09-30T11:59:24.488Z,97082.61
2022-09-30T12:01:55.737Z,97086.19
2022-09-30T12:04:39.341Z,97086.77
2022-09-30T12:07:21.256Z,97087.70
2022-09-30T12:09:58.435Z,97087.08
2022-09-30T12:12:25.606Z,97078.86
2022-09-30T12:15:05.769Z,97082.61
2022-09-30T12:17:41.461Z,97076.19
2022-09-30T12:20:15.151Z,97082.23
2022-09-30T12:22:46.711Z,97079.88
2022-09-30T12:25:22.661Z,97086.70
2022-09-30T12:28:00.897Z,97089.41
2022-09-30T12:30:30.215Z,97088.52
2022-09-30T12:33:12.109Z,97083.63
2022-09-30T12:35:58.777Z,97088.19
2022-09-30T12:38:50.492Z,97083.48
2022-09-30T12:41:49.614Z,97083.86
2022-09-30T12:44:42.298Z,97086.96
2022-09-30T12:47:37.480Z,97089.10
2022-09-30T12:50:08.105Z,97095.45
2022-09-30T12:52:38.059Z,97092.87
2022-09-30T12:55:22.309Z,97093.44
2022-09-30T12:57:51.954Z,97098.19
2022-09-30T13:00:27.089Z,97113.52
2022-09-30T13:02:59.025Z,97121.45
2022-09-30T13:05:26.168Z,97124.19
2022-09-30T13:08:05.584Z,97129.29
2022-09-30T13:10:37.655Z,97125.36
2022-09-30T13:13:10.792Z,97123.70
2022-09-30T13:15:39.827Z,97131.42
2022-09-30T13:18:26.635Z,97134.92
2022-09-30T13:21:07.369Z,97141.23
2022-09-30T13:23:36.146Z,97143.02
2022-09-30T13:26:24.512Z,97146.48
2022-09-30T13:28:54.494Z,97151.11
2022-09-30T13:31:23.853Z,97154.92
2022-09-30T13:34:06.495Z,97154.38
2022-09-30T13:36:51.675Z,97157.00
2022-09-30T13:39:34.220Z,97157.88
2022-09-30T13:42:14.726Z,97164.88
2022-09-30T13:44:57.429Z,97172.55
2022-09-30T13:47:32.729Z,97174.48
2022-09-30T13:50:27.555Z,97175.64
2022-09-30T13:52:58.901Z,97173.95
2022-09-30T13:55:46.029Z,97173.20
2022-09-30T13:58:54.623Z,97172.16
2022-09-30T14:01:46.757Z,97176.07
2022-09-30T14:04:47.006Z,97177.81
2022-09-30T14:07:39.683Z,97176.23
2022-09-30T14:10:31.877Z,97173.05
2022-09-30T14:13:08.639Z,97175.02
2022-09-30T14:15:46.579Z,97170.70
2022-09-30T14:18:45.006Z,97179.25
2022-09-30T14:21:47.829Z,97181.15
2022-09-30T14:24:23.700Z,97183.86
2022-09-30T14:27:16.235Z,97182.64
2022-09-30T14:29:55.718Z,97184.35
2022-09-30T14:32:29.938Z,97187.70
2022-09-30T14:34:59.747Z,97196.82
2022-09-30T14:37:32.168Z,97196.55
2022-09-30T14:40:01.066Z,97199.11
2022-09-30T14:42:49.642Z,97203.80
2022-09-30T14:45:28.408Z,97208.50
2022-09-30T14:47:58.657Z,97208.28
2022-09-30T14:50:31.133Z,97211.91
2022-09-30T14:53:00.259Z,97211.75
2022-09-30T14:55:30.277Z,97208.38
2022-09-30T14:58:26.373Z,97208.33
2022-09-30T15:01:05.312Z,97213.09
2022-09-30T15:03:35.856Z,97215.08
2022-09-30T15:06:05.105Z,97217.64
2022-09-30T15:08:32.891Z,97217.14
2022-09-30T15:11:00.460Z,97220.13
2022-09-30T15:13:31.633Z,97225.50
2022-09-30T15:15:59.161Z,97224.87
2022-09-30T15:18:43.306Z,97223.34
2022-09-30T15:21:15.094Z,97230.70
2022-09-30T15:23:53.352Z,97236.86
2022-09-30T15:26:23.874Z,97241.10
2022-09-30T15:28:51.485Z,97244.41
2022-09-30T15:31:25.768Z,97246.73
2022-09-30T15:34:02.066Z,97244.00
2022-09-30T15:36:29.998Z,97246.00
2022-09-30T15:38:57.889Z,97248.67
2022-09-30T15:41:26.055Z,97246.77
2022-09-30T15:43:53.690Z,97243.64
2022-09-30T15:46:27.206Z,97247.61
2022-09-30T15:48:58.137Z,97250.80
2022-09-30T15:51:30.013Z,97257.68
2022-09-30T15:54:02.475Z,97263.52
2022-09-30T15:56:37.522Z,97266.87
2022-09-30T15:59:12.827Z,97265.98
2022-09-30T16:01:45.639Z,97269.96
2022-09-30T16:04:25.942Z,97270.05
2022-09-30T16:06:59.218Z,97274.67
2022-09-30T16:09:31.255Z,97276.02
2022-09-30T16:12:05.272Z,97279.88
2022-09-30T16:14:43.054Z,97283.36
2022-09-30T16:17:33.182Z,97283.62
2022-09-30T16:20:21.832Z,97281.40
2022-09-30T16:22:54.613Z,97286.64
2022-09-30T16:25:28.409Z,97291.64
2022-09-30T16:28:01.406Z,97292.46
2022-09-30T16:30:31.835Z,97291.79
2022-09-30T16:33:04.184Z,97292.14
2022-09-30T16:35:32.950Z,97294.19
2022-09-30T16:38:06.150Z,97297.32
2022-09-30T16:40:35.257Z,97302.92
2022-09-30T16:43:07.566Z,97302.61
2022-09-30T16:45:36.438Z,97304.05
2022-09-30T16:48:17.364Z,97309.61
2022-09-30T16:51:15.344Z,97306.41
2022-09-30T16:53:43.730Z,97311.76
2022-09-30T16:56:19.331Z,97314.77
2022-09-30T16:58:47.183Z,97319.98
2022-09-30T17:01:25.537Z,97316.58
2022-09-30T17:03:55.418Z,97313.80
2022-09-30T17:06:28.050Z,97316.65
2022-09-30T17:09:00.019Z,97317.75
2022-09-30T17:11:33.311Z,97321.44
2022-09-30T17:14:01.840Z,97331.33
2022-09-30T17:16:29.944Z,97343.84
2022-09-30T17:18:57.372Z,97350.60
2022-09-30T17:21:25.956Z,97348.86
2022-09-30T17:23:55.027Z,97352.16
2022-09-30T17:26:22.628Z,97361.69
2022-09-30T17:28:50.257Z,97363.39
2022-09-30T17:31:17.762Z,97367.61
2022-09-30T17:33:45.948Z,97370.02
2022-09-30T17:36:14.494Z,97378.39
2022-09-30T17:38:41.697Z,97375.70
2022-09-30T17:41:30.995Z,97381.56
2022-09-30T17:44:01.995Z,97385.52
2022-09-30T17:46:43.685Z,97385.18
2022-09-30T17:49:19.553Z,97388.32
2022-09-30T17:51:50.713Z,97391.40
2022-09-30T17:54:17.996Z,97392.29
2022-09-30T17:56:45.196Z,97402.08
2022-09-30T17:59:12.376Z,97407.02
2022-09-30T18:01:40.450Z,97406.65
2022-09-30T18:04:07.822Z,97405.70
2022-09-30T18:06:35.412Z,97404.59
2022-09-30T18:09:02.722Z,97404.70
2022-09-30T18:11:31.290Z,97403.48
2022-09-30T18:13:59.476Z,97397.58
2022-09-30T18:16:30.690Z,97400.95
2022-09-30T18:19:02.377Z,97413.31
2022-09-30T18:21:35.063Z,97410.27
2022-09-30T18:24:06.486Z,97414.98
2022-09-30T18:26:36.020Z,97423.83
2022-09-30T18:29:03.915Z,97422.40
2022-09-30T18:31:36.489Z,97420.06
2022-09-30T18:34:13.151Z,97422.05
2022-09-30T18:36:44.186Z,97421.91
2022-09-30T18:39:11.679Z,97424.55
2022-09-30T18:41:45.278Z,97424.84
2022-09-30T18:44:13.553Z,97426.76
2022-09-30T18:46:42.403Z,97425.73
2022-09-30T18:49:13.559Z,97427.05
2022-09-30T18:51:40.858Z,97427.34
2022-09-30T18:54:08.156Z,97432.10
2022-09-30T18:56:35.428Z,97436.63
2022-09-30T18:59:04.544Z,97431.94
2022-09-30T19:01:33.589Z,97437.20
2022-09-30T19:04:04.275Z,97434.67
2022-09-30T19:06:32.845Z,97436.53
2022-09-30T19:09:00.085Z,97437.94
2022-09-30T19:11:29.759Z,97441.98
2022-09-30T19:13:58.356Z,97438.73
2022-09-30T19:16:25.608Z,97439.98
2022-09-30T19:18:54.685Z,97441.52
2022-09-30T19:21:22.249Z,97440.77
2022-09-30T19:23:50.134Z,97440.14
2022-09-30T19:26:17.386Z,97435.92
2022-09-30T19:28:44.751Z,97436.52
2022-09-30T19:31:16.504Z,97433.73
2022-09-30T19:33:54.563Z,97437.96
2022-09-30T19:36:26.444Z,97437.89
2022-09-30T19:39:09.189Z,97444.80
2022-09-30T19:41:41.760Z,97453.19
2022-09-30T19:44:09.001Z,97460.70
2022-09-30T19:46:36.355Z,97461.73
2022-09-30T19:49:03.742Z,97462.85
2022-09-30T19:51:32.493Z,97461.55
2022-09-30T19:54:06.829Z,97455.61
2022-09-30T19:56:36.641Z,97458.95
2022-09-30T19:59:04.523Z,97452.73
2022-09-30T20:01:35.230Z,97456.35
2022-09-30T20:04:04.498Z,97457.23
2022-09-30T20:06:32.958Z,97458.99
2022-09-30T20:09:02.631Z,97457.80
2022-09-30T20:11:35.431Z,97460.63
2022-09-30T20:14:23.859Z,97464.08
2022-09-30T20:16:51.612Z,97463.52
2022-09-30T20:19:20.146Z,97464.27
2022-09-30T20:21:49.573Z,97459.34
2022-09-30T20:24:18.104Z,97457.36
2022-09-30T20:26:46.593Z,97457.70
2022-09-30T20:29:14.233Z,97459.66
2022-09-30T20:31:42.473Z,97467.20
2022-09-30T20:34:13.175Z,97467.77
2022-09-30T20:36:41.066Z,97466.54
2022-09-30T20:39:09.428Z,97461.42
2022-09-30T20:41:38.947Z,97461.46
2022-09-30T20:44:15.647Z,97457.30
2022-09-30T20:46:43.692Z,97463.34
2022-09-30T20:49:11.159Z,97461.43
2022-09-30T20:51:38.535Z,97465.02
2022-09-30T20:54:06.104Z,97475.23
2022-09-30T20:56:55.628Z,97477.18
2022-09-30T20:59:20.952Z,97484.39
2022-09-30T21:01:48.177Z,97488.80
2022-09-30T21:04:15.896Z,97492.89
2022-09-30T21:06:43.300Z,97498.27
2022-09-30T21:09:11.979Z,97497.28
2022-09-30T21:11:41.896Z,97500.28
2022-09-30T21:14:09.230Z,97497.83
2022-09-30T21:16:36.736Z,97495.65
2022-09-30T21:19:04.203Z,97495.94
2022-09-30T21:21:32.445Z,97488.76
2022-09-30T21:24:00.365Z,97493.33
2022-09-30T21:26:27.737Z,97502.46
2022-09-30T21:28:55.077Z,97499.67
2022-09-30T21:31:26.381Z,97497.31
2022-09-30T21:33:58.850Z,97493.36
2022-09-30T21:36:27.787Z,97497.31
2022-09-30T21:39:01.107Z,97499.36
2022-09-30T21:41:29.675Z,97501.36
2022-09-30T21:43:57.967Z,97501.28
2022-09-30T21:46:26.859Z,97498.21
2022-09-30T21:49:20.120Z,97497.79
2022-09-30T21:51:48.176Z,97487.51
2022-09-30T21:54:15.501Z,97487.46
2022-09-30T21:56:43.394Z,97485.11
2022-09-30T21:59:12.283Z,97488.46
2022-09-30T22:01:39.787Z,97485.83
2022-09-30T22:04:07.601Z,97482.67
2022-09-30T22:06:35.187Z,97481.92
2022-09-30T22:09:03.089Z,97484.54
2022-09-30T22:11:32.008Z,97486.45
2022-09-30T22:14:00.542Z,97490.19
2022-09-30T22:16:36.641Z,97494.52
2022-09-30T22:19:06.938Z,97501.66
2022-09-30T22:21:36.597Z,97506.34
2022-09-30T22:24:06.697Z,97507.36
2022-09-30T22:26:36.057Z,97507.20
2022-09-30T22:29:06.679Z,97507.77
2022-09-30T22:31:34.945Z,97503.52
2022-09-30T22:34:24.438Z,97504.83
2022-09-30T22:37:10.920Z,97505.73
2022-09-30T22:39:38.809Z,97511.99
2022-09-30T22:42:07.126Z,97514.58
2022-09-30T22:44:36.482Z,97518.21
2022-09-30T22:47:04.957Z,97515.45
2022-09-30T22:49:32.743Z,97515.52
2022-09-30T22:52:01.647Z,97517.56
2022-09-30T22:54:29.820Z,97511.91
2022-09-30T22:56:58.998Z,97511.63
2022-09-30T22:59:27.898Z,97510.23
2022-09-30T23:01:59.416Z,97513.86
2022-09-30T23:04:29.074Z,97519.19
2022-09-30T23:06:56.695Z,97523.38
2022-09-30T23:09:24.404Z,97523.22
2022-09-30T23:11:54.064Z,97513.98
2022-09-30T23:14:25.314Z,97519.41
2022-09-30T23:16:53.380Z,97524.38
2022-09-30T23:19:21.065Z,97523.06
2022-09-30T23:21:49.091Z,97517.80
2022-09-30T23:24:17.080Z,97518.70
2022-09-30T23:26:45.396Z,97517.67
2022-09-30T23:29:15.257Z,97520.77
2022-09-30T23:31:43.148Z,97520.96
2022-09-30T23:34:10.865Z,97520.79
2022-09-30T23:36:38.453Z,97521.11
2022-09-30T23:39:21.476Z,97525.87
2022-09-30T23:41:49.911Z,97532.48
2022-09-30T23:44:18.690Z,97540.23
2022-09-30T23:47:07.228Z,97535.00
2022-09-30T23:49:35.594Z,97528.20
2022-09-30T23:52:08.022Z,97530.25
2022-09-30T23:54:40.808Z,97536.02
2022-09-30T23:57:10.492Z,97528.54
2022-09-30T23:59:39.287Z,97516.11
